Aeroporto :
LOGIN :

Iscrizione | Disclaimer

   EN    FR    IT 

 










Sommario :    VFR   VFR Marginale   IFR   IFR Intensivo   IFR Molto Intensivo
Visibilità : 
Base nubi : 
>= 8 km
>= 3000ft
5 / 8 km
1000 / 3000 ft
1500m / 5 km
500 / 1000 ft
800 / 1500m
200 / 500 ft
< 800m
< 200 ft
Simboli :   Temporali  Nebbia  Neve Forte  Precipitazioni Forti  Vento > 20 kt
SIGMETs :   Varie  Temporali  Ghiacco  Turbolenza  Onda orograficha  Ceneri Vulcaniche






- Altitudine del aeroporto : 1906 ft
- Codice IATA : INN


LOWI - Innsbruck

ULTIMO METAR :
  • 122050Z 11002KT 2000 SN SCT004 BKN008 00/M00 Q1005 NOSIG

METARs OBSOLETI :
  • 122020Z VRB01KT 6000 -RASN SCT005 BKN012 01/00 Q1005 NOSIG
  • 121950Z VRB02KT 9000 -RASN SCT007 SCT012 BKN015 02/01 Q1006 NOSIG
  • 121920Z 11004KT 040V150 9999 -RASN FEW006 SCT012 BKN018 02/01 Q1006 NOSIG
  • 121850Z 33003KT 260V070 8000 RA FEW006 SCT012 BKN017 03/03 Q1006 NOSIG
  • 121820Z 28003KT 9999 RA FEW006 SCT012 BKN025 03/03 Q1005 NOSIG

TAF AMD TAF LOWI
Valido dal 12 a 18 ore il 13 a 18 ore UTC


121832Z 1218/1318 VRB02KT 9999 SCT010 BKN025 TX03/1219Z TN01/1304Z
TEMPO 1218/1221 5000 SNRA SCT007 BKN015
TEMPO 1221/1310 1500 SNRA VV005
TEMPO 1310/1315 -RASN SCT010 BKN030



MetMap, La meteo Aeronautica in un colpo d'occhio ! - Copyright ORBIFLY Dicembre 2007 - Disclaimer

ORBIFLY MET'MAP TEAM :

Programmazione e sviluppo : Alexandra Zaïnal
Concezione e sviluppo : Baudouin d'Aumeries
Co-Programmazione e sviluppo : Marc-Olivier Méhu
Supporto tecnico e logistico : Manuel Goepfert
Aiuto per la traduzione : Arnaldo La Scala

Contatto : metmap@orbifly.com




FONTI E CREDITI :

   NOAA